Time;durP1;ratioP1;P1;durP2;ratioP2;P2;SDS_P1;SDS_P2;PMS_P1;PMS_P2;Temp;Humidity;BMP_temperature;BMP_pressure;BME280_temperature;BME280_humidity;BME280_pressure;Samples;Min_cycle;Max_cycle;Signal;HPM_P1;HPM_P2
2022/08/14 00:02:20;;;;;;;;;21.40;21.00;;;;;26.73;57.39;98375.19;6227002;27;97004;-55
2022/08/14 00:05:26;;;;;;;;;21.00;19.00;;;;;26.72;57.74;98365.28;6228304;27;96656;-55
2022/08/14 00:08:30;;;;;;;;;17.00;13.40;;;;;26.65;57.65;98353.97;6246413;27;96675;-57
2022/08/14 00:11:48;;;;;;;;;25.60;24.00;;;;;26.70;57.63;98366.75;6248562;27;97644;-56
2022/08/14 00:14:55;;;;;;;;;21.20;20.20;;;;;26.49;57.69;98335.56;6248329;27;97967;-55
2022/08/14 00:18:00;;;;;;;;;16.00;15.00;;;;;26.69;57.46;98359.63;6239145;27;96991;-57
2022/08/14 00:21:04;;;;;;;;;22.00;21.00;;;;;26.68;57.74;98355.25;6252823;27;97378;-57
2022/08/14 00:24:13;;;;;;;;;21.80;20.80;;;;;26.54;57.46;98335.34;6246087;27;96680;-58
2022/08/14 00:27:32;;;;;;;;;23.25;23.25;;;;;26.67;57.57;98357.19;6235859;27;97099;-57
2022/08/14 00:30:40;;;;;;;;;26.50;24.25;;;;;26.67;57.56;98359.97;6235322;27;97586;-56
2022/08/14 00:33:45;;;;;;;;;17.40;16.20;;;;;26.65;57.56;98351.19;6237629;28;97412;-59
2022/08/14 00:36:54;;;;;;;;;20.20;19.80;;;;;26.65;57.92;98344.84;6253232;27;97494;-57
2022/08/14 00:40:01;;;;;;;;;22.00;20.60;;;;;26.65;57.58;98345.66;6235990;27;97774;-55
2022/08/14 00:43:26;;;;;;;;;18.80;18.80;;;;;26.65;57.95;98345.66;6219024;27;97408;-58
2022/08/14 00:46:34;;;;;;;;;21.00;20.00;;;;;26.63;57.99;98339.66;6237645;27;97552;-56
2022/08/14 00:49:38;;;;;;;;;23.40;22.40;;;;;26.64;58.31;98334.94;6229762;28;97502;-59
2022/08/14 00:52:46;;;;;;;;;21.00;20.00;;;;;26.63;57.86;98333.34;6234968;27;96885;-57
2022/08/14 00:55:55;;;;;;;;;20.00;18.00;;;;;26.61;57.85;98333.66;6237074;27;97274;-56
2022/08/14 00:59:00;;;;;;;;;20.00;18.20;;;;;26.61;58.40;98327.34;6234533;27;96510;-57
2022/08/14 01:02:06;;;;;;;;;21.40;20.00;;;;;26.60;58.37;98334.81;6240064;27;97461;-59
2022/08/14 01:05:22;;;;;;;;;23.00;22.00;;;;;26.60;58.11;98332.06;6238640;27;96957;-59
2022/08/14 01:08:28;;;;;;;;;22.40;21.40;;;;;26.60;58.16;98342.31;6250890;27;96844;-58
2022/08/14 01:11:53;;;;;;;;;19.40;18.00;;;;;26.59;58.19;98329.63;6235737;27;97538;-58
2022/08/14 01:15:08;;;;;;;;;22.60;22.00;;;;;26.57;58.15;98329.97;6244686;27;96779;-56
2022/08/14 01:21:41;;;;;;;;;22.00;20.00;;;;;26.57;58.29;98318.09;6249920;27;96734;-58
2022/08/14 01:24:56;;;;;;;;;21.00;21.00;;;;;26.57;58.05;98326.41;6223426;28;97001;-55
2022/08/14 01:28:00;;;;;;;;;22.80;21.80;;;;;26.56;57.95;98317.28;6234648;27;97391;-58
2022/08/14 01:31:07;;;;;;;;;25.00;22.00;;;;;26.56;58.03;98313.72;6244861;27;96755;-55
2022/08/14 01:34:10;;;;;;;;;24.50;22.75;;;;;26.56;58.00;98320.06;6258540;27;96870;-56
2022/08/14 01:37:35;;;;;;;;;23.75;23.25;;;;;26.55;58.25;98323.97;6261880;27;98551;-56
2022/08/14 01:40:46;;;;;;;;;24.20;23.60;;;;;26.49;58.43;98308.72;6252347;27;97203;-59
2022/08/14 01:43:54;;;;;;;;;23.80;22.80;;;;;26.55;58.12;98314.88;6250688;27;97496;-59
2022/08/14 01:47:00;;;;;;;;;25.80;24.00;;;;;26.54;57.87;98316.00;6235402;27;97281;-57
2022/08/14 01:50:10;;;;;;;;;22.50;21.00;;;;;26.55;57.92;98312.91;6254344;27;97562;-57
2022/08/14 01:53:18;;;;;;;;;20.40;19.80;;;;;26.45;58.11;98296.75;6243183;27;97321;-59
2022/08/14 01:56:32;;;;;;;;;23.00;21.75;;;;;26.49;57.94;98305.97;6250158;27;96862;-56
2022/08/14 01:59:43;;;;;;;;;23.25;22.25;;;;;26.55;58.29;98314.88;6257692;27;97011;-59
2022/08/14 02:02:46;;;;;;;;;26.80;24.00;;;;;26.54;58.12;98316.81;6238977;27;96993;-56
2022/08/14 02:05:58;;;;;;;;;26.80;25.00;;;;;26.53;58.21;98315.22;6239785;27;98584;-57
2022/08/14 02:09:23;;;;;;;;;22.00;21.80;;;;;26.42;57.96;98291.09;6216283;28;97678;-58
2022/08/14 02:12:29;;;;;;;;;24.80;23.00;;;;;26.54;58.31;98308.53;6234015;27;97497;-57
2022/08/14 02:15:32;;;;;;;;;23.80;22.80;;;;;26.54;58.36;98307.72;6232046;27;97493;-57
2022/08/14 02:18:36;;;;;;;;;24.00;21.00;;;;;26.36;58.39;98276.69;6238699;27;97479;-57
2022/08/14 02:21:42;;;;;;;;;22.50;20.50;;;;;26.52;58.43;98304.50;6257294;27;96715;-58
2022/08/14 02:24:54;;;;;;;;;30.80;29.80;;;;;26.51;58.19;98303.69;6244882;27;97437;-55
2022/08/14 02:27:58;;;;;;;;;24.20;22.40;;;;;26.52;58.19;98301.72;6233076;27;97827;-55
2022/08/14 02:31:21;;;;;;;;;23.80;22.80;;;;;26.04;58.08;98227.72;6232849;27;97529;-59
2022/08/14 02:34:38;;;;;;;;;31.00;27.50;;;;;26.48;58.19;98296.09;6237932;27;97416;-57
2022/08/14 02:37:43;;;;;;;;;28.60;26.60;;;;;26.48;58.26;98300.81;6237143;27;98975;-57
2022/08/14 02:40:52;;;;;;;;;23.20;21.40;;;;;26.47;58.34;98296.41;6258916;27;96885;-59
2022/08/14 02:43:55;;;;;;;;;23.50;21.50;;;;;26.47;58.48;98291.69;6238026;27;96483;-59
2022/08/14 02:47:04;;;;;;;;;26.40;25.40;;;;;26.46;58.29;98297.56;6246849;27;97395;-56
2022/08/14 02:50:16;;;;;;;;;25.60;25.00;;;;;26.46;58.48;98292.03;6224856;28;97237;-59
2022/08/14 02:53:20;;;;;;;;;32.00;30.00;;;;;26.45;58.67;98291.22;6216397;27;97687;-60
2022/08/14 02:56:26;;;;;;;;;23.00;22.00;;;;;26.45;58.49;98291.22;6233644;27;97114;-56
2022/08/14 02:59:51;;;;;;;;;26.00;25.50;;;;;26.45;58.23;98290.41;6245824;27;97560;-58
2022/08/14 03:02:54;;;;;;;;;26.60;26.40;;;;;26.45;58.21;98295.94;6236676;27;99146;-59
2022/08/14 03:06:02;;;;;;;;;30.20;30.00;;;;;26.44;58.26;98295.13;6249862;27;97168;-58
2022/08/14 03:09:05;;;;;;;;;29.00;27.00;;;;;26.43;58.76;98295.47;6239546;27;96870;-57
2022/08/14 03:12:11;;;;;;;;;25.50;25.25;;;;;26.44;58.79;98297.88;6243131;27;99168;-57
2022/08/14 03:15:20;;;;;;;;;27.33;26.33;;;;;26.44;58.35;98292.34;6254572;27;97664;-58
2022/08/14 03:18:26;;;;;;;;;25.75;24.00;;;;;26.43;58.60;98296.28;6228734;28;97014;-59
2022/08/14 03:21:38;;;;;;;;;33.80;30.00;;;;;26.44;58.32;98289.59;6259919;27;96478;-58
2022/08/14 03:24:42;;;;;;;;;26.60;26.00;;;;;26.43;58.42;98284.44;6237497;27;96902;-57
2022/08/14 03:27:47;;;;;;;;;27.60;25.40;;;;;26.42;58.37;98286.38;6246830;27;97880;-58
2022/08/14 03:31:05;;;;;;;;;26.00;24.60;;;;;26.40;58.70;98291.44;6247000;27;97060;-56
2022/08/14 03:34:15;;;;;;;;;23.20;20.20;;;;;26.29;58.42;98268.94;6245688;27;97518;-57
2022/08/14 03:37:39;;;;;;;;;23.75;22.75;;;;;26.41;58.76;98286.72;6248276;27;97403;-57
2022/08/14 03:41:09;;;;;;;;;24.40;24.00;;;;;26.41;58.52;98287.53;6227238;27;96969;-55
2022/08/14 03:44:15;;;;;;;;;27.00;26.00;;;;;26.41;58.25;98289.47;6255258;27;97419;-58
2022/08/14 03:47:40;;;;;;;;;26.00;24.20;;;;;26.41;58.40;98287.53;6240853;27;98030;-59
2022/08/14 03:50:59;;;;;;;;;24.00;23.00;;;;;26.32;58.32;98281.28;6231824;27;98516;-57
2022/08/14 03:54:07;;;;;;;;;23.50;23.00;;;;;26.41;58.52;98298.56;6234843;27;97447;-56
2022/08/14 03:57:13;;;;;;;;;23.20;22.00;;;;;26.42;58.25;98293.88;6228391;27;98673;-57
2022/08/14 04:00:18;;;;;;;;;24.60;23.00;;;;;26.41;58.62;98289.47;6255852;27;96737;-55
2022/08/14 04:03:42;;;;;;;;;23.40;22.40;;;;;26.30;58.68;98281.59;6235184;27;97768;-57
2022/08/14 04:06:51;;;;;;;;;24.00;22.00;;;;;26.41;58.54;98290.28;6241696;27;97552;-57
2022/08/14 04:09:54;;;;;;;;;24.80;23.00;;;;;26.43;58.50;98295.47;6238406;27;99013;-57
2022/08/14 04:13:01;;;;;;;;;25.75;25.00;;;;;26.42;58.42;98289.16;6225738;27;98474;-59
2022/08/14 04:16:10;;;;;;;;;24.50;23.00;;;;;26.43;58.44;98292.72;6225724;28;98478;-56
2022/08/14 04:19:17;;;;;;;;;24.00;23.00;;;;;26.43;58.42;98298.25;6226966;28;97127;-57
2022/08/14 04:22:20;;;;;;;;;29.00;26.20;;;;;26.44;58.24;98288.81;6229640;28;97416;-58
2022/08/14 04:25:24;;;;;;;;;24.75;23.00;;;;;26.44;58.19;98295.13;6236967;27;97738;-57
2022/08/14 04:28:28;;;;;;;;;23.00;21.00;;;;;26.45;58.37;98291.22;6235642;27;96486;-55
2022/08/14 04:31:52;;;;;;;;;25.00;23.75;;;;;26.46;58.56;98292.03;6236238;27;96662;-59
2022/08/14 04:35:16;;;;;;;;;24.50;22.75;;;;;26.50;58.60;98292.97;6244402;27;96350;-56
2022/08/14 04:45:22;;;;;;;;;29.00;25.40;;;;;26.38;58.16;98263.34;6215481;27;97143;-57
2022/08/14 04:48:28;;;;;;;;;29.25;28.00;;;;;26.55;58.83;98284.44;6245557;27;98602;-55
2022/08/14 04:51:43;;;;;;;;;26.00;22.80;;;;;26.57;58.31;98279.41;6228517;27;97296;-58
2022/08/14 04:54:58;;;;;;;;;25.00;24.00;;;;;26.58;58.34;98287.38;6242291;27;97048;-58
2022/08/14 04:58:04;;;;;;;;;27.25;24.50;;;;;26.62;58.00;98277.22;6240463;27;97053;-58
2022/08/14 05:01:10;;;;;;;;;24.25;23.00;;;;;26.67;58.28;98285.31;6235663;27;97527;-57
2022/08/14 05:04:23;;;;;;;;;24.80;22.40;;;;;26.69;58.58;98284.94;6227912;27;97337;-60
2022/08/14 05:07:28;;;;;;;;;25.20;23.20;;;;;26.71;58.25;98282.66;6253878;27;97106;-59
2022/08/14 05:10:54;;;;;;;;;22.60;21.20;;;;;26.71;57.99;98275.19;6247732;27;96580;-59
2022/08/14 05:13:58;;;;;;;;;24.60;23.60;;;;;26.72;58.60;98282.34;6245062;27;97330;-60
2022/08/14 05:17:24;;;;;;;;;29.00;25.40;;;;;26.73;57.81;98281.16;6258627;27;97490;-56
2022/08/14 05:20:50;;;;;;;;;22.00;20.00;;;;;26.75;58.14;98280.81;6247165;27;97690;-60
2022/08/14 05:24:13;;;;;;;;;22.60;21.00;;;;;26.78;58.15;98282.13;6250107;27;97087;-57
2022/08/14 05:27:20;;;;;;;;;25.00;24.00;;;;;26.78;57.77;98271.84;6253448;27;96779;-57
2022/08/14 05:30:26;;;;;;;;;23.80;22.20;;;;;26.81;57.95;98281.41;6243496;27;97462;-58
2022/08/14 05:33:31;;;;;;;;;24.60;22.60;;;;;26.83;57.53;98282.69;6237236;27;97563;-57
2022/08/14 05:36:38;;;;;;;;;21.50;19.50;;;;;26.84;57.50;98278.75;6251512;27;97460;-59
2022/08/14 05:39:43;;;;;;;;;20.00;18.20;;;;;26.88;57.66;98278.94;6240237;27;97466;-58
2022/08/14 05:42:47;;;;;;;;;27.20;24.80;;;;;26.88;57.92;98265.88;6238602;27;96545;-59
2022/08/14 05:45:55;;;;;;;;;24.00;20.75;;;;;26.98;57.27;98268.22;6254609;27;96787;-57
2022/08/14 05:49:01;;;;;;;;;22.00;20.00;;;;;27.03;57.67;98267.19;6237090;27;97599;-56
2022/08/14 05:52:07;;;;;;;;;23.60;21.80;;;;;27.07;57.69;98268.91;6229461;28;97452;-59
2022/08/14 05:55:12;;;;;;;;;21.00;17.00;;;;;27.13;57.61;98273.06;6237585;28;97014;-59
2022/08/14 05:58:15;;;;;;;;;21.25;20.00;;;;;27.22;57.23;98275.72;6225328;27;96947;-56
2022/08/14 06:01:19;;;;;;;;;21.60;20.40;;;;;27.30;57.11;98276.78;6236817;27;97543;-58
2022/08/14 06:04:25;;;;;;;;;18.60;17.40;;;;;27.39;56.84;98269.97;6251647;27;97729;-60
2022/08/14 06:07:35;;;;;;;;;19.00;18.00;;;;;27.46;56.86;98281.28;6258721;27;98149;-57
2022/08/14 06:10:38;;;;;;;;;16.60;15.00;;;;;27.53;56.15;98283.47;6251347;27;97983;-60
2022/08/14 06:13:44;;;;;;;;;20.00;19.00;;;;;27.60;56.02;98280.13;6247507;27;97538;-59
2022/08/14 06:16:48;;;;;;;;;20.50;19.00;;;;;27.68;55.62;98281.97;6239927;27;96598;-60
2022/08/14 06:19:55;;;;;;;;;15.40;15.00;;;;;27.74;55.83;98284.16;6251705;27;97301;-60
2022/08/14 06:23:00;;;;;;;;;17.00;17.00;;;;;27.82;55.13;98279.63;6235235;27;97326;-59
2022/08/14 06:26:04;;;;;;;;;19.40;19.00;;;;;27.87;54.58;98279.38;6238476;27;97110;-59
2022/08/14 06:29:09;;;;;;;;;19.75;18.75;;;;;27.89;54.74;98286.22;6236987;27;97206;-58
2022/08/14 06:32:14;;;;;;;;;17.60;17.60;;;;;27.90;54.71;98289.78;6234056;27;97008;-59
2022/08/14 06:35:38;;;;;;;;;19.20;17.00;;;;;27.89;54.78;98288.16;6239360;27;97544;-57
2022/08/14 06:38:43;;;;;;;;;22.60;19.60;;;;;27.89;54.37;98282.63;6238059;27;98166;-57
2022/08/14 06:41:52;;;;;;;;;28.00;26.00;;;;;27.88;54.58;98279.03;6248430;27;96722;-59
2022/08/14 06:45:02;;;;;;;;;19.33;19.33;;;;;27.87;54.17;98279.38;6241887;27;97494;-58
2022/08/14 06:48:13;;;;;;;;;18.80;17.80;;;;;27.89;55.32;98271.53;6251806;27;97461;-58
2022/08/14 06:51:19;;;;;;;;;15.20;14.20;;;;;27.89;54.78;98275.13;6237950;27;98523;-58
2022/08/14 06:54:25;;;;;;;;;16.00;16.00;;;;;27.91;53.96;98270.03;6242971;27;97800;-58
2022/08/14 06:57:39;;;;;;;;;16.00;15.60;;;;;27.93;54.17;98273.25;6248544;27;97477;-60
2022/08/14 07:05:44;;;;;;;;;25.40;22.00;;;;;27.92;54.15;98273.59;6235091;27;97483;-56
2022/08/14 07:07:36;;;;;;;;;19.50;18.00;;;;;27.88;54.61;98270.72;6246036;27;97125;-59
2022/08/14 07:10:43;;;;;;;;;15.00;14.80;;;;;27.84;55.05;98264.28;6233689;27;97023;-61
2022/08/14 07:13:51;;;;;;;;;18.40;15.80;;;;;27.95;54.59;98276.47;6228385;28;98340;-61
2022/08/14 07:16:55;;;;;;;;;13.80;12.80;;;;;28.02;54.63;98273.13;6217585;28;97235;-58
2022/08/14 07:20:04;;;;;;;;;17.80;15.80;;;;;28.12;54.22;98275.41;6226721;28;97106;-60
2022/08/14 07:23:10;;;;;;;;;15.50;15.50;;;;;28.27;53.94;98265.56;6231795;28;97702;-58
2022/08/14 07:26:25;;;;;;;;;13.00;12.00;;;;;28.44;53.11;98268.81;6230272;27;98155;-60
2022/08/14 07:29:31;;;;;;;;;15.00;13.00;;;;;28.65;53.13;98265.00;6232422;28;96753;-59
2022/08/14 07:32:35;;;;;;;;;12.00;12.00;;;;;28.84;50.96;98268.75;6223365;28;97205;-59
2022/08/14 07:35:40;;;;;;;;;12.80;12.00;;;;;29.02;51.04;98282.28;6236763;27;97655;-60
2022/08/14 07:39:00;;;;;;;;;13.20;12.20;;;;;29.15;50.06;98278.25;6234974;28;97749;-57
2022/08/14 07:42:15;;;;;;;;;14.00;14.00;;;;;29.20;49.40;98280.75;6237498;27;96662;-58
2022/08/14 07:45:24;;;;;;;;;13.50;12.50;;;;;29.31;49.74;98278.28;6236424;27;97357;-61
2022/08/14 07:48:39;;;;;;;;;13.20;12.00;;;;;29.41;49.84;98283.28;6232880;27;97416;-58
2022/08/14 07:51:43;;;;;;;;;12.00;12.00;;;;;29.44;48.28;98285.31;6224682;28;97764;-60
2022/08/14 07:54:47;;;;;;;;;8.00;7.60;;;;;29.50;49.22;98287.47;6226497;27;98954;-60
2022/08/14 07:57:53;;;;;;;;;14.00;13.40;;;;;29.52;48.32;98293.47;6228225;27;97392;-59
2022/08/14 08:01:01;;;;;;;;;13.75;12.75;;;;;29.53;48.38;98292.31;6221727;27;97871;-60
2022/08/14 08:04:07;;;;;;;;;10.20;10.20;;;;;29.54;48.70;98284.78;6233497;27;97635;-61
2022/08/14 08:07:21;;;;;;;;;13.00;12.60;;;;;29.55;48.96;98289.16;6232244;28;97261;-59
2022/08/14 08:10:32;;;;;;;;;15.25;14.25;;;;;29.55;48.47;98289.16;6231631;28;97826;-58
2022/08/14 08:14:01;;;;;;;;;14.50;13.00;;;;;29.58;48.27;98292.03;6239271;27;97783;-58
2022/08/14 08:17:05;;;;;;;;;16.00;16.00;;;;;29.59;48.33;98285.31;6245779;27;97384;-57
2022/08/14 08:20:15;;;;;;;;;11.75;10.75;;;;;29.63;48.75;98282.59;6234342;27;96812;-60
2022/08/14 08:23:24;;;;;;;;;15.00;13.60;;;;;29.68;49.46;98280.34;6232707;28;96905;-59
2022/08/14 08:26:42;;;;;;;;;15.80;15.00;;;;;29.70;48.98;98289.16;6235615;28;96767;-58
2022/08/14 08:29:48;;;;;;;;;16.00;14.00;;;;;29.68;49.53;98285.91;6231403;27;97182;-61
2022/08/14 08:32:55;;;;;;;;;14.00;14.00;;;;;29.71;50.27;98281.63;6231842;27;96290;-59
2022/08/14 08:36:02;;;;;;;;;16.00;14.60;;;;;29.76;49.24;98277.75;6246434;27;96952;-59
2022/08/14 08:39:05;;;;;;;;;16.00;15.60;;;;;29.78;49.56;98269.84;6245265;28;96554;-56
2022/08/14 08:42:25;;;;;;;;;17.00;16.00;;;;;29.88;48.88;98274.84;6241821;28;97140;-58
2022/08/14 08:45:42;;;;;;;;;14.00;13.00;;;;;29.89;49.13;98257.84;6234688;27;97464;-58
2022/08/14 08:48:47;;;;;;;;;16.50;15.00;;;;;30.09;48.29;98270.59;6234396;27;97277;-62
2022/08/14 08:52:03;;;;;;;;;13.75;13.00;;;;;30.17;48.11;98265.97;6233717;28;97624;-58
2022/08/14 08:55:07;;;;;;;;;17.40;15.40;;;;;30.31;47.55;98271.00;6242831;28;97530;-57
2022/08/14 08:58:18;;;;;;;;;14.00;13.40;;;;;30.58;48.84;98261.66;6234703;28;97790;-59
2022/08/14 09:01:29;;;;;;;;;12.40;12.40;;;;;30.80;46.55;98273.97;6233264;27;98182;-58
2022/08/14 09:04:36;;;;;;;;;13.00;13.00;;;;;30.99;46.23;98271.94;6239216;27;97056;-59
2022/08/14 09:07:48;;;;;;;;;13.80;11.80;;;;;31.16;45.64;98279.03;6238353;27;98232;-58
2022/08/14 09:11:00;;;;;;;;;14.00;13.20;;;;;31.31;45.84;98271.72;6244601;27;96711;-59
2022/08/14 09:14:03;;;;;;;;;18.00;18.00;;;;;31.47;45.32;98266.00;6233152;27;97384;-54
2022/08/14 09:17:09;;;;;;;;;12.00;11.80;;;;;31.59;44.94;98269.41;6233178;27;96893;-60
2022/08/14 09:20:13;;;;;;;;;15.00;13.00;;;;;31.75;44.90;98264.47;6234460;27;96888;-58
2022/08/14 09:23:28;;;;;;;;;15.33;13.67;;;;;31.86;43.33;98266.59;6236454;27;97591;-58
2022/08/14 09:26:52;;;;;;;;;14.20;12.20;;;;;31.95;42.79;98255.97;6237374;28;96845;-60
2022/08/14 09:29:55;;;;;;;;;15.00;14.00;;;;;32.01;42.65;98260.06;6244548;27;97546;-62
2022/08/14 09:33:26;;;;;;;;;13.00;13.00;;;;;32.03;42.40;98255.69;6243439;27;96765;-60
2022/08/14 09:36:48;;;;;;;;;13.50;13.50;;;;;32.09;42.61;98262.53;6239058;28;97120;-55
2022/08/14 09:40:05;;;;;;;;;11.00;11.00;;;;;32.10;41.48;98257.78;6236330;27;97661;-58
2022/08/14 09:43:25;;;;;;;;;14.00;13.60;;;;;32.08;42.08;98254.53;6240779;28;97342;-59
2022/08/14 09:46:30;;;;;;;;;14.00;14.00;;;;;32.17;41.76;98260.66;6239968;27;97609;-61
2022/08/14 09:49:38;;;;;;;;;11.20;10.20;;;;;32.24;41.87;98272.72;6229020;27;97421;-58
2022/08/14 09:52:50;;;;;;;;;12.00;11.00;;;;;32.40;42.98;98271.72;6232546;28;96748;-59
2022/08/14 09:55:59;;;;;;;;;13.40;13.40;;;;;32.51;40.81;98265.06;6232064;27;97694;-56
2022/08/14 09:59:13;;;;;;;;;10.60;10.00;;;;;32.66;40.57;98266.84;6239549;27;97458;-60
2022/08/14 10:02:21;;;;;;;;;9.40;9.00;;;;;32.82;39.45;98263.84;6262575;27;97030;-55
2022/08/14 10:05:32;;;;;;;;;9.60;9.00;;;;;33.02;40.01;98261.63;6254271;27;97107;-57
2022/08/14 10:08:45;;;;;;;;;10.25;10.00;;;;;33.26;38.32;98258.28;6229096;27;96735;-56
2022/08/14 10:11:55;;;;;;;;;8.80;8.00;;;;;33.45;38.29;98257.22;6239423;27;97301;-58
2022/08/14 10:15:01;;;;;;;;;8.80;7.80;;;;;33.69;37.91;98251.03;6235845;27;97446;-59
2022/08/14 10:18:09;;;;;;;;;6.75;6.00;;;;;33.82;36.79;98248.69;6234863;27;96690;-62
2022/08/14 10:21:21;;;;;;;;;8.00;7.00;;;;;33.98;37.16;98245.56;6236521;27;97033;-58
2022/08/14 10:24:25;;;;;;;;;7.00;7.00;;;;;34.10;35.85;98234.88;6235943;28;97445;-57
2022/08/14 10:27:40;;;;;;;;;8.00;8.00;;;;;34.30;36.44;98227.78;6236639;28;96891;-59
2022/08/14 10:30:47;;;;;;;;;7.00;7.00;;;;;34.54;37.35;98231.03;6236902;27;97470;-53
2022/08/14 10:34:06;;;;;;;;;8.00;8.00;;;;;34.74;36.64;98232.31;6234420;27;97261;-60
2022/08/14 10:37:18;;;;;;;;;8.00;6.60;;;;;34.92;36.52;98240.72;6239089;27;97076;-59
2022/08/14 10:40:28;;;;;;;;;8.60;8.00;;;;;35.04;37.23;98234.75;6255809;27;96893;-56
2022/08/14 10:44:06;;;;;;;;;6.00;6.00;;;;;34.99;36.05;98235.91;6235329;27;97094;-62
2022/08/14 10:47:35;;;;;;;;;9.00;9.00;;;;;34.97;35.20;98237.53;6233856;28;96846;-60
2022/08/14 10:50:59;;;;;;;;;9.00;9.00;;;;;34.95;35.21;98245.53;6233067;27;97402;-55
2022/08/14 10:54:09;;;;;;;;;7.40;7.00;;;;;34.89;35.01;98244.34;6229221;28;101294;-61
2022/08/14 10:57:34;;;;;;;;;9.00;9.00;;;;;34.91;36.07;98239.13;6235736;28;96801;-59
2022/08/14 11:00:41;;;;;;;;;7.00;7.00;;;;;34.86;35.44;98239.50;6233863;27;97485;-60
2022/08/14 11:03:50;;;;;;;;;9.00;8.00;;;;;34.84;35.34;98244.72;6249272;27;96751;-57
2022/08/14 11:06:59;;;;;;;;;8.00;7.40;;;;;34.83;34.19;98232.72;6237309;28;97414;-60
2022/08/14 11:10:08;;;;;;;;;6.40;6.40;;;;;34.86;34.54;98237.50;6236329;27;96652;-60
2022/08/14 11:13:20;;;;;;;;;7.40;7.00;;;;;34.88;34.50;98239.94;6237936;28;97474;-58
2022/08/14 11:16:26;;;;;;;;;8.40;8.00;;;;;34.88;34.58;98234.31;6237550;27;97004;-63
2022/08/14 11:19:32;;;;;;;;;5.00;5.00;;;;;34.92;34.31;98235.13;6237541;27;97257;-61
2022/08/14 11:22:40;;;;;;;;;7.40;7.00;;;;;35.00;34.57;98233.91;6238499;27;98060;-60
2022/08/14 11:26:06;;;;;;;;;7.60;7.60;;;;;35.04;35.04;98241.13;6234282;28;100228;-61
2022/08/14 11:29:11;;;;;;;;;6.80;6.80;;;;;34.99;34.75;98241.53;6237845;27;97411;-61
2022/08/14 11:32:18;;;;;;;;;6.40;6.00;;;;;34.86;34.97;98237.50;6248330;27;97749;-61
2022/08/14 11:35:23;;;;;;;;;7.00;7.00;;;;;34.77;34.81;98239.91;6238568;27;96932;-57
2022/08/14 11:38:40;;;;;;;;;5.00;5.00;;;;;34.68;35.38;98231.09;6234923;27;97491;-54
2022/08/14 11:41:49;;;;;;;;;7.40;7.40;;;;;34.57;35.74;98241.44;6236669;27;97852;-63
2022/08/14 11:45:03;;;;;;;;;7.60;7.00;;;;;34.30;35.98;98229.78;6233346;28;97617;-60
2022/08/14 11:48:18;;;;;;;;;7.40;7.00;;;;;34.25;36.25;98239.34;6235313;27;96394;-56
2022/08/14 11:51:43;;;;;;;;;8.20;8.20;;;;;34.00;38.12;98251.59;6234360;28;97513;-63
2022/08/14 11:54:59;;;;;;;;;9.80;9.80;;;;;33.77;38.40;98257.47;6235022;27;97487;-59
2022/08/14 11:58:08;;;;;;;;;7.00;7.00;;;;;33.54;38.76;98232.53;6232436;28;97839;-58
2022/08/14 12:01:14;;;;;;;;;8.20;7.40;;;;;33.80;39.48;98245.50;6233573;27;97353;-60
2022/08/14 12:04:20;;;;;;;;;10.80;10.20;;;;;33.96;38.76;98245.19;6235720;27;96739;-58
2022/08/14 12:07:33;;;;;;;;;7.75;6.75;;;;;33.99;38.55;98241.59;6236201;28;97538;-60
2022/08/14 12:10:40;;;;;;;;;12.00;11.60;;;;;34.06;38.75;98238.84;6237853;28;97238;-57
2022/08/14 12:13:47;;;;;;;;;9.00;9.00;;;;;34.17;39.29;98234.06;6236169;28;97568;-57
2022/08/14 12:17:00;;;;;;;;;10.40;9.80;;;;;34.12;38.81;98214.88;6221504;27;97023;-57
2022/08/14 12:20:07;;;;;;;;;12.75;12.75;;;;;34.35;38.15;98227.41;6230975;27;97539;-59
2022/08/14 12:23:21;;;;;;;;;11.00;10.40;;;;;34.37;38.54;98213.00;6237757;27;97378;-55
2022/08/14 12:26:26;;;;;;;;;10.80;10.80;;;;;34.69;37.64;98229.91;6237291;27;96989;-55
2022/08/14 12:29:53;;;;;;;;;8.80;8.00;;;;;34.95;37.64;98231.50;6241249;27;98151;-56
2022/08/14 12:32:56;;;;;;;;;10.00;10.00;;;;;35.03;36.76;98225.53;6237670;28;97975;-54
2022/08/14 12:36:01;;;;;;;;;10.00;9.00;;;;;35.07;36.69;98226.34;6235058;27;96780;-60
2022/08/14 12:39:18;;;;;;;;;8.80;8.80;;;;;35.06;35.40;98216.31;6235234;27;97044;-57
2022/08/14 12:42:34;;;;;;;;;9.20;9.20;;;;;35.17;36.20;98214.34;6235824;28;96671;-56
2022/08/14 12:45:49;;;;;;;;;9.00;9.00;;;;;35.19;34.75;98211.94;6236980;27;96453;-57
2022/08/14 12:48:52;;;;;;;;;7.00;7.00;;;;;35.20;34.98;98207.94;6236158;27;96822;-56
2022/08/14 12:51:58;;;;;;;;;7.00;7.00;;;;;35.33;35.59;98204.75;6237225;27;96743;-57
2022/08/14 12:55:04;;;;;;;;;8.00;7.40;;;;;35.47;35.10;98188.69;6237261;27;96468;-55
2022/08/14 12:58:09;;;;;;;;;7.00;7.00;;;;;35.64;35.60;98189.84;6236853;27;97402;-57
2022/08/14 13:01:36;;;;;;;;;9.60;8.60;;;;;35.79;34.03;98177.41;6234935;27;97451;-60
2022/08/14 13:05:00;;;;;;;;;8.00;8.00;;;;;35.99;34.25;98192.56;6236550;27;97529;-55
2022/08/14 13:08:05;;;;;;;;;9.00;9.00;;;;;36.14;34.30;98175.69;6241942;27;97370;-62
2022/08/14 13:11:39;;;;;;;;;10.80;9.00;;;;;36.09;34.18;98176.09;6210793;28;97138;-60
2022/08/14 13:14:50;;;;;;;;;10.80;10.80;;;;;36.04;34.11;98180.91;6235342;27;97639;-57
2022/08/14 13:17:59;;;;;;;;;10.00;10.00;;;;;35.98;34.11;98185.34;6243343;27;96909;-57
2022/08/14 13:21:04;;;;;;;;;11.80;10.80;;;;;35.91;33.98;98174.16;6236463;28;97161;-61
2022/08/14 13:24:11;;;;;;;;;11.40;11.00;;;;;35.73;33.56;98142.56;6232570;27;97493;-55
2022/08/14 13:27:17;;;;;;;;;11.00;11.00;;;;;35.89;35.03;98150.53;6236464;28;97152;-55
2022/08/14 13:30:23;;;;;;;;;14.00;14.00;;;;;35.94;33.96;98153.72;6239530;27;97108;-59
2022/08/14 13:33:30;;;;;;;;;14.40;13.40;;;;;35.95;34.06;98152.50;6230906;27;97500;-56
2022/08/14 13:36:34;;;;;;;;;12.60;12.60;;;;;35.89;34.38;98134.50;6240107;28;96995;-57
2022/08/14 13:39:58;;;;;;;;;15.67;13.33;;;;;35.85;34.31;98130.09;6249769;27;97451;-60
2022/08/14 13:43:02;;;;;;;;;13.00;12.25;;;;;35.80;34.35;98136.13;6240509;27;97399;-59
2022/08/14 13:46:07;;;;;;;;;13.50;13.25;;;;;35.75;34.86;98133.75;6246808;27;97490;-59
2022/08/14 13:49:15;;;;;;;;;10.50;10.00;;;;;35.62;33.96;98133.38;6222259;28;97928;-55
2022/08/14 13:52:20;;;;;;;;;15.60;14.60;;;;;35.41;34.35;98122.22;6230391;27;96753;-59
2022/08/14 13:55:46;;;;;;;;;14.40;12.40;;;;;35.27;34.77;98114.66;6240207;27;98012;-57
2022/08/14 13:58:58;;;;;;;;;17.00;16.50;;;;;35.21;34.60;98119.06;6240168;28;96558;-58
2022/08/14 14:02:06;;;;;;;;;12.20;12.00;;;;;35.05;34.37;98113.88;6239531;28;96845;-57
2022/08/14 14:05:17;;;;;;;;;12.20;10.80;;;;;34.98;34.38;98116.69;6227241;28;97341;-55
2022/08/14 14:08:24;;;;;;;;;11.20;11.20;;;;;34.92;34.28;98103.47;6214611;28;97029;-59
2022/08/14 14:11:47;;;;;;;;;13.00;13.00;;;;;34.89;34.93;98116.31;6222670;28;97522;-60
2022/08/14 14:14:56;;;;;;;;;13.60;13.60;;;;;34.77;34.71;98111.09;6237689;27;97257;-60
2022/08/14 14:18:04;;;;;;;;;13.40;13.40;;;;;34.77;34.99;98111.09;6240050;28;96828;-60
2022/08/14 14:21:29;;;;;;;;;13.00;12.50;;;;;34.72;34.97;98117.91;6239921;28;96877;-55
2022/08/14 14:24:35;;;;;;;;;17.00;15.00;;;;;34.75;34.65;98111.50;6223846;28;96814;-59
2022/08/14 14:27:40;;;;;;;;;13.00;13.00;;;;;34.80;35.38;98112.31;6239108;27;97411;-56
2022/08/14 14:30:46;;;;;;;;;14.00;13.00;;;;;34.68;34.37;98114.31;6214845;27;96214;-58
2022/08/14 14:33:59;;;;;;;;;13.75;13.75;;;;;34.56;34.86;98103.47;6215015;28;96596;-61
2022/08/14 14:37:04;;;;;;;;;12.50;12.25;;;;;34.51;35.92;98111.47;6215952;28;97101;-58
2022/08/14 14:40:11;;;;;;;;;12.00;12.00;;;;;34.44;36.33;98097.47;6214718;28;97870;-54
2022/08/14 14:43:39;;;;;;;;;15.60;14.60;;;;;34.72;36.12;98115.09;6214899;28;96748;-58
2022/08/14 14:46:48;;;;;;;;;13.80;13.00;;;;;34.78;35.15;98115.50;6214641;28;96638;-55
2022/08/14 14:49:53;;;;;;;;;14.00;13.20;;;;;34.73;34.55;98125.09;6215231;28;97471;-53
2022/08/14 14:52:59;;;;;;;;;23.25;22.75;;;;;34.60;34.78;98107.06;6214171;28;97370;-58